Time;durP1;ratioP1;P1;durP2;ratioP2;P2;SDS_P1;SDS_P2;PMS_P1;PMS_P2;Temp;Humidity;BMP_temperature;BMP_pressure;BME280_temperature;BME280_humidity;BME280_pressure;Samples;Min_cycle;Max_cycle;Signal;HPM_P1;HPM_P2
2021/08/18 00:00:11;;;;;;;20.80;16.40;;;15.60;99.90;;;;;;5082753;28;20324;-73
2021/08/18 00:02:40;;;;;;;22.07;14.97;;;15.60;99.90;;;;;;5083894;28;20248;-74
2021/08/18 00:05:11;;;;;;;27.60;15.80;;;15.60;99.90;;;;;;5080643;28;20193;-74
2021/08/18 00:07:39;;;;;;;20.17;15.63;;;15.60;99.90;;;;;;5081829;28;20207;-73
2021/08/18 00:10:09;;;;;;;23.90;15.57;;;15.60;99.90;;;;;;5081745;28;20176;-73
2021/08/18 00:12:38;;;;;;;21.03;15.43;;;15.60;99.90;;;;;;5081537;28;20234;-75
2021/08/18 00:15:08;;;;;;;18.87;15.00;;;15.60;99.90;;;;;;5082784;28;20175;-74
2021/08/18 00:17:37;;;;;;;19.23;14.67;;;15.50;99.90;;;;;;5080215;28;20172;-74
2021/08/18 00:20:06;;;;;;;22.30;15.83;;;15.50;99.90;;;;;;5081617;28;20188;-74
2021/08/18 00:22:35;;;;;;;24.20;15.53;;;15.50;99.90;;;;;;5080199;28;20255;-74
2021/08/18 00:25:03;;;;;;;20.33;16.57;;;15.50;99.90;;;;;;5085664;28;20214;-74
2021/08/18 00:27:32;;;;;;;22.97;15.97;;;15.50;99.90;;;;;;5078953;28;20184;-74
2021/08/18 00:30:00;;;;;;;22.77;14.83;;;15.60;99.90;;;;;;5082064;28;20176;-74
2021/08/18 00:32:29;;;;;;;24.40;16.43;;;15.50;99.90;;;;;;5081523;28;20213;-74
2021/08/18 00:34:58;;;;;;;24.90;15.80;;;15.50;99.90;;;;;;5081959;28;20333;-69
2021/08/18 00:37:29;;;;;;;24.53;16.33;;;15.50;99.90;;;;;;5080752;28;20219;-74
2021/08/18 00:39:57;;;;;;;26.23;16.97;;;15.50;99.90;;;;;;5084293;28;20191;-70
2021/08/18 00:42:26;;;;;;;27.67;17.07;;;15.50;99.90;;;;;;5079398;28;20226;-74
2021/08/18 00:44:54;;;;;;;24.43;16.80;;;15.60;99.90;;;;;;5082195;28;20183;-74
2021/08/18 00:47:23;;;;;;;24.90;16.70;;;15.50;99.90;;;;;;5078443;28;20343;-74
2021/08/18 00:49:51;;;;;;;24.63;16.57;;;15.50;99.90;;;;;;5081460;28;20180;-74
2021/08/18 00:52:21;;;;;;;30.00;18.17;;;15.50;99.90;;;;;;5078275;28;20203;-74
2021/08/18 00:54:51;;;;;;;26.27;18.13;;;15.50;99.90;;;;;;5081990;28;20184;-75
2021/08/18 00:57:19;;;;;;;23.23;17.03;;;15.50;99.90;;;;;;5079237;28;20299;-74
2021/08/18 00:59:48;;;;;;;28.47;17.33;;;15.50;99.90;;;;;;5081373;28;20183;-74
2021/08/18 01:02:19;;;;;;;36.80;17.63;;;15.60;99.90;;;;;;5079250;28;20185;-74
2021/08/18 01:04:48;;;;;;;29.67;18.27;;;15.60;99.90;;;;;;5080506;28;20264;-74
2021/08/18 01:07:17;;;;;;;22.13;16.77;;;15.50;99.90;;;;;;5076103;28;20235;-74
2021/08/18 01:09:46;;;;;;;30.57;18.33;;;15.50;99.90;;;;;;5076829;28;20188;-74
2021/08/18 01:12:15;;;;;;;27.37;19.07;;;15.50;99.90;;;;;;5081082;28;20195;-74
2021/08/18 01:14:43;;;;;;;27.37;18.60;;;15.50;99.90;;;;;;5079456;28;20201;-74
2021/08/18 01:17:13;;;;;;;31.47;19.27;;;15.50;99.90;;;;;;5083510;28;20179;-74
2021/08/18 01:19:41;;;;;;;29.10;18.87;;;15.50;99.90;;;;;;5079456;28;20215;-75
2021/08/18 01:22:10;;;;;;;29.40;19.90;;;15.60;99.90;;;;;;5079755;28;20422;-74
2021/08/18 01:24:38;;;;;;;33.40;20.50;;;15.60;99.90;;;;;;5080535;28;20183;-74
2021/08/18 01:27:08;;;;;;;32.30;20.27;;;15.60;99.90;;;;;;5078769;28;20184;-74
2021/08/18 01:29:38;;;;;;;30.57;19.23;;;15.50;99.90;;;;;;5080726;28;20202;-75
2021/08/18 01:32:07;;;;;;;27.23;19.60;;;15.60;99.90;;;;;;5081807;28;20258;-73
2021/08/18 01:34:36;;;;;;;36.70;21.57;;;15.60;99.90;;;;;;5081240;28;20202;-74
2021/08/18 01:37:05;;;;;;;32.60;20.13;;;15.60;99.90;;;;;;5081229;28;20440;-75
2021/08/18 01:39:33;;;;;;;31.27;20.43;;;15.60;99.90;;;;;;5080508;28;20188;-75
2021/08/18 01:42:01;;;;;;;30.23;19.97;;;15.60;99.90;;;;;;5081126;28;20196;-74
2021/08/18 01:44:32;;;;;;;29.27;18.83;;;15.60;99.90;;;;;;5077693;28;20184;-74
2021/08/18 01:47:02;;;;;;;31.63;19.63;;;15.60;99.90;;;;;;5081998;28;20226;-74
2021/08/18 01:49:30;;;;;;;30.90;20.57;;;15.60;99.90;;;;;;5083069;28;20181;-74
2021/08/18 01:51:58;;;;;;;29.63;19.83;;;15.60;99.90;;;;;;5076505;28;20184;-74
2021/08/18 01:54:26;;;;;;;34.97;21.53;;;15.60;99.90;;;;;;5084385;28;20212;-74
2021/08/18 01:56:55;;;;;;;31.70;20.40;;;15.60;99.90;;;;;;5084522;28;20226;-73
2021/08/18 01:59:26;;;;;;;33.20;21.20;;;15.60;99.90;;;;;;5086575;28;20196;-74
2021/08/18 02:01:54;;;;;;;33.90;21.53;;;15.60;99.90;;;;;;5081743;28;20184;-74
2021/08/18 02:04:24;;;;;;;32.63;20.70;;;15.60;99.90;;;;;;5083010;28;20180;-75
2021/08/18 02:06:53;;;;;;;31.50;21.90;;;15.60;99.90;;;;;;5083469;28;20192;-75
2021/08/18 02:09:21;;;;;;;38.27;23.03;;;15.60;99.90;;;;;;5099621;28;20176;-75
2021/08/18 02:11:50;;;;;;;37.40;22.93;;;15.60;99.90;;;;;;5084003;28;20333;-75
2021/08/18 02:14:19;;;;;;;37.13;23.47;;;15.60;99.90;;;;;;5082399;28;20263;-74
2021/08/18 02:16:47;;;;;;;36.67;22.97;;;15.50;99.90;;;;;;5084573;28;20176;-75
2021/08/18 02:19:15;;;;;;;35.87;22.40;;;15.50;99.90;;;;;;5081320;28;20259;-75
2021/08/18 02:21:45;;;;;;;35.63;21.83;;;15.60;99.90;;;;;;5085864;28;20351;-75
2021/08/18 02:24:13;;;;;;;36.80;22.63;;;15.60;99.90;;;;;;5082441;28;20420;-74
2021/08/18 02:26:44;;;;;;;36.00;21.20;;;15.60;99.90;;;;;;5085992;28;20192;-75
2021/08/18 02:29:12;;;;;;;32.27;22.20;;;15.60;99.90;;;;;;5080798;28;20177;-74
2021/08/18 02:31:40;;;;;;;33.43;21.80;;;15.60;99.90;;;;;;5083175;28;20216;-74
2021/08/18 02:34:09;;;;;;;35.57;21.23;;;15.50;99.90;;;;;;5080097;28;20451;-74
2021/08/18 02:36:37;;;;;;;35.23;20.90;;;15.60;99.90;;;;;;5082795;28;20176;-74
2021/08/18 02:39:08;;;;;;;33.27;22.50;;;15.60;99.90;;;;;;5081657;28;20172;-73
2021/08/18 02:41:37;;;;;;;33.77;22.50;;;15.60;99.90;;;;;;5088793;28;20180;-75
2021/08/18 02:44:05;;;;;;;33.97;20.57;;;15.60;99.90;;;;;;5084800;28;20177;-75
2021/08/18 02:46:34;;;;;;;31.47;21.43;;;15.60;99.90;;;;;;5084866;28;20312;-75
2021/08/18 02:49:02;;;;;;;34.53;21.33;;;15.60;99.90;;;;;;5083052;28;20234;-74
2021/08/18 02:51:30;;;;;;;33.57;21.30;;;15.60;99.90;;;;;;5082828;28;20368;-74
2021/08/18 02:53:59;;;;;;;34.07;20.50;;;15.60;99.90;;;;;;5084867;28;20253;-74
2021/08/18 02:56:28;;;;;;;30.50;20.83;;;15.60;99.90;;;;;;5082097;28;20172;-74
2021/08/18 02:58:56;;;;;;;31.67;19.40;;;15.60;99.90;;;;;;5080691;28;20184;-74
2021/08/18 03:01:25;;;;;;;34.83;20.73;;;15.60;99.90;;;;;;5083005;28;20179;-74
2021/08/18 03:03:53;;;;;;;30.50;19.83;;;15.60;99.90;;;;;;5078662;28;20192;-74
2021/08/18 03:06:21;;;;;;;32.37;19.93;;;15.60;99.90;;;;;;5081859;28;20331;-74
2021/08/18 03:08:49;;;;;;;30.37;19.20;;;15.60;99.90;;;;;;5082661;28;20172;-75
2021/08/18 03:11:18;;;;;;;29.03;19.50;;;15.60;99.90;;;;;;5081370;28;20189;-74
2021/08/18 03:13:47;;;;;;;29.90;20.30;;;15.60;99.90;;;;;;5081215;28;20197;-74
2021/08/18 03:16:15;;;;;;;34.27;19.30;;;15.60;99.90;;;;;;5082412;28;20180;-74
2021/08/18 03:18:46;;;;;;;36.20;20.60;;;15.60;99.90;;;;;;5083546;28;20263;-74
2021/08/18 03:21:14;;;;;;;34.30;19.50;;;15.60;99.90;;;;;;5081513;28;20419;-73
2021/08/18 03:23:42;;;;;;;35.00;20.77;;;15.60;99.90;;;;;;5084354;28;20183;-73
2021/08/18 03:26:11;;;;;;;33.93;21.30;;;15.60;99.90;;;;;;5079564;28;20322;-74
2021/08/18 03:28:39;;;;;;;34.50;21.43;;;15.60;99.90;;;;;;5081474;28;20465;-74
2021/08/18 03:31:09;;;;;;;31.23;20.17;;;15.60;99.90;;;;;;5081761;28;20224;-74
2021/08/18 03:33:37;;;;;;;33.40;21.60;;;15.60;99.90;;;;;;5083520;28;20272;-74
2021/08/18 03:36:06;;;;;;;33.47;20.83;;;15.60;99.90;;;;;;5080871;28;20184;-72
2021/08/18 03:38:35;;;;;;;36.33;21.07;;;15.60;99.90;;;;;;5082906;28;20195;-73
2021/08/18 03:41:04;;;;;;;34.03;22.50;;;15.60;99.90;;;;;;5082009;28;20177;-74
2021/08/18 03:43:32;;;;;;;30.40;20.23;;;15.60;99.90;;;;;;5082673;28;20187;-74
2021/08/18 03:46:00;;;;;;;31.73;21.13;;;15.60;99.90;;;;;;5081745;28;20176;-74
2021/08/18 03:48:30;;;;;;;36.37;21.47;;;15.60;99.90;;;;;;5078188;28;20216;-74
2021/08/18 03:50:58;;;;;;;33.97;20.83;;;15.60;99.90;;;;;;5080900;28;20195;-74
2021/08/18 03:53:29;;;;;;;36.47;21.00;;;15.60;99.90;;;;;;5082162;28;20419;-74
2021/08/18 03:55:58;;;;;;;34.13;20.97;;;15.60;99.90;;;;;;5082816;28;20180;-74
2021/08/18 03:58:26;;;;;;;33.70;21.10;;;15.70;99.90;;;;;;5086142;28;20194;-75
2021/08/18 04:00:54;;;;;;;34.60;20.47;;;15.70;99.90;;;;;;5082689;28;20183;-74
2021/08/18 04:03:23;;;;;;;38.07;20.80;;;15.70;99.90;;;;;;5080604;28;20194;-74
2021/08/18 04:05:53;;;;;;;32.97;20.57;;;15.70;99.90;;;;;;5081176;28;20411;-74
2021/08/18 04:08:21;;;;;;;33.47;19.60;;;15.70;99.90;;;;;;5080039;28;20180;-74
2021/08/18 04:10:49;;;;;;;31.87;19.30;;;15.70;99.90;;;;;;5078270;28;20210;-74
2021/08/18 04:13:42;;;;;;;35.07;19.97;;;15.70;99.90;;;;;;5078598;28;20233;-74
2021/08/18 04:16:20;;;;;;;30.13;19.33;;;15.70;99.90;;;;;;5080482;28;20223;-75
2021/08/18 04:18:48;;;;;;;32.30;19.87;;;15.70;99.90;;;;;;5078335;28;20203;-74
2021/08/18 04:21:19;;;;;;;37.17;20.20;;;15.60;99.90;;;;;;5084048;28;20208;-74
2021/08/18 04:23:47;;;;;;;29.53;19.13;;;15.60;99.90;;;;;;5080233;28;20184;-74
2021/08/18 04:26:41;;;;;;;34.37;20.33;;;15.60;99.90;;;;;;5081467;28;20233;-73
2021/08/18 04:29:55;;;;;;;31.63;18.93;;;15.60;99.90;;;;;;5077762;28;20206;-74
2021/08/18 04:33:00;;;;;;;29.90;17.87;;;15.60;99.90;;;;;;5080836;28;20177;-73
2021/08/18 04:35:45;;;;;;;33.27;18.43;;;15.60;99.90;;;;;;5065832;28;20197;-74
2021/08/18 04:38:14;;;;;;;28.43;18.10;;;15.60;99.90;;;;;;5080655;28;20407;-74
2021/08/18 04:40:43;;;;;;;30.93;19.27;;;15.60;99.90;;;;;;5081017;28;20181;-74
2021/08/18 04:43:12;;;;;;;32.20;18.97;;;15.60;99.90;;;;;;5081666;28;20180;-74
2021/08/18 04:45:40;;;;;;;35.43;18.07;;;15.60;99.90;;;;;;5079830;28;20180;-74
2021/08/18 04:48:09;;;;;;;32.83;18.87;;;15.60;99.90;;;;;;5096682;28;20184;-73
2021/08/18 04:50:37;;;;;;;34.57;18.53;;;15.60;99.90;;;;;;5080271;28;20422;-74
2021/08/18 04:53:09;;;;;;;28.20;17.93;;;15.60;99.90;;;;;;5082420;28;20192;-74
2021/08/18 04:55:40;;;;;;;27.70;17.43;;;15.60;99.90;;;;;;5079535;28;20207;-74
2021/08/18 04:58:08;;;;;;;33.30;18.97;;;15.60;99.90;;;;;;5077952;28;20199;-71
2021/08/18 05:00:37;;;;;;;32.60;17.57;;;15.60;99.90;;;;;;5080335;28;20188;-74
2021/08/18 05:03:05;;;;;;;29.43;18.20;;;15.60;99.90;;;;;;5080226;28;20193;-74
2021/08/18 05:05:34;;;;;;;31.60;18.03;;;15.60;99.90;;;;;;5081674;28;20316;-74
2021/08/18 05:08:03;;;;;;;34.47;18.07;;;15.60;99.90;;;;;;5081344;28;20183;-74
2021/08/18 05:10:31;;;;;;;28.47;18.20;;;15.60;99.90;;;;;;5080328;28;20195;-74
2021/08/18 05:13:01;;;;;;;33.97;18.97;;;15.70;99.90;;;;;;5085009;28;20179;-74
2021/08/18 05:15:30;;;;;;;36.73;19.20;;;15.70;99.90;;;;;;5081542;28;20227;-74
2021/08/18 05:17:58;;;;;;;29.20;17.97;;;15.70;99.90;;;;;;5080056;28;20442;-74
2021/08/18 05:20:27;;;;;;;36.00;18.93;;;15.70;99.90;;;;;;5079077;28;20192;-74
2021/08/18 05:22:55;;;;;;;30.13;18.07;;;15.70;99.90;;;;;;5080912;28;20219;-74
2021/08/18 05:25:23;;;;;;;29.40;17.97;;;15.70;99.90;;;;;;5080048;28;20287;-74
2021/08/18 05:27:52;;;;;;;31.50;18.60;;;15.70;99.90;;;;;;5080240;28;20252;-74
2021/08/18 05:30:25;;;;;;;29.57;17.87;;;15.80;99.90;;;;;;5081108;28;20448;-72
2021/08/18 05:32:53;;;;;;;32.90;17.40;;;15.80;99.90;;;;;;5081981;28;20207;-74
2021/08/18 05:35:22;;;;;;;27.77;17.57;;;15.80;99.90;;;;;;5082934;28;20452;-74
2021/08/18 05:37:50;;;;;;;29.70;18.03;;;15.80;99.90;;;;;;5078072;28;20200;-74
2021/08/18 05:40:18;;;;;;;26.73;17.33;;;15.90;99.90;;;;;;5076943;28;20203;-74
2021/08/18 05:42:47;;;;;;;27.70;18.23;;;15.90;99.90;;;;;;5081472;28;20196;-74
2021/08/18 05:45:16;;;;;;;25.07;16.80;;;15.90;99.90;;;;;;5081755;28;20201;-72
2021/08/18 05:47:45;;;;;;;26.93;17.57;;;16.00;99.90;;;;;;5082462;28;20181;-74
2021/08/18 05:50:13;;;;;;;27.37;17.10;;;16.00;99.90;;;;;;5080920;28;20423;-74
2021/08/18 05:52:42;;;;;;;25.40;16.53;;;16.00;99.90;;;;;;5079889;28;20227;-74
2021/08/18 05:55:10;;;;;;;27.13;17.00;;;16.00;99.90;;;;;;5082607;28;20242;-74
2021/08/18 05:57:39;;;;;;;24.77;17.03;;;16.00;99.90;;;;;;5095948;28;20231;-74
2021/08/18 06:00:09;;;;;;;29.20;16.90;;;16.10;99.90;;;;;;5079691;28;20241;-74
2021/08/18 06:02:37;;;;;;;25.90;16.00;;;16.10;99.90;;;;;;5081376;28;20191;-74
2021/08/18 06:05:08;;;;;;;23.10;15.77;;;16.10;99.90;;;;;;5079575;28;20242;-74
2021/08/18 06:07:36;;;;;;;22.80;15.17;;;16.10;99.90;;;;;;5084330;28;20192;-74
2021/08/18 06:10:06;;;;;;;20.67;14.63;;;16.10;99.90;;;;;;5079029;28;20215;-74
2021/08/18 06:12:34;;;;;;;23.27;14.70;;;16.10;99.90;;;;;;5076145;28;20348;-74
2021/08/18 06:15:02;;;;;;;23.93;14.73;;;16.20;99.90;;;;;;5079732;28;20207;-74
2021/08/18 06:17:31;;;;;;;24.97;14.53;;;16.20;99.90;;;;;;5081534;28;20180;-74
2021/08/18 06:19:59;;;;;;;21.37;14.80;;;16.20;99.90;;;;;;5083144;28;20177;-74
2021/08/18 06:22:28;;;;;;;20.83;14.80;;;16.20;99.90;;;;;;5080468;28;20193;-74
2021/08/18 06:25:01;;;;;;;25.03;15.27;;;16.20;99.90;;;;;;5080700;28;20174;-74
2021/08/18 06:27:30;;;;;;;23.67;15.80;;;16.30;99.90;;;;;;5081296;28;20180;-74
2021/08/18 06:30:00;;;;;;;28.13;16.30;;;16.30;99.90;;;;;;5080406;28;20196;-74
2021/08/18 06:32:29;;;;;;;24.00;15.33;;;16.30;99.90;;;;;;5081526;28;20236;-73
2021/08/18 06:34:58;;;;;;;19.80;15.40;;;16.40;99.90;;;;;;5078222;28;20435;-74
2021/08/18 06:37:39;;;;;;;20.83;15.17;;;16.40;99.90;;;;;;5080073;28;20180;-74
2021/08/18 06:40:09;;;;;;;20.63;15.03;;;16.50;99.90;;;;;;5081950;28;20188;-72
2021/08/18 06:42:40;;;;;;;25.27;15.93;;;16.50;99.90;;;;;;5087682;28;20183;-74
2021/08/18 06:45:11;;;;;;;23.77;16.27;;;16.50;99.90;;;;;;5082179;28;20396;-74
2021/08/18 06:47:39;;;;;;;25.97;15.70;;;16.60;99.90;;;;;;5079347;28;20186;-73
2021/08/18 06:50:09;;;;;;;22.90;15.87;;;16.60;99.90;;;;;;5082660;28;20181;-73
2021/08/18 06:52:39;;;;;;;25.27;16.37;;;16.60;99.90;;;;;;5084065;28;20283;-73
2021/08/18 06:55:09;;;;;;;23.77;16.03;;;16.60;99.90;;;;;;5083369;28;20172;-73
2021/08/18 06:57:37;;;;;;;23.83;16.17;;;16.60;99.90;;;;;;5078680;28;20364;-73
2021/08/18 07:00:07;;;;;;;21.60;15.80;;;16.70;99.90;;;;;;5087466;28;20202;-73
2021/08/18 07:02:42;;;;;;;24.87;16.37;;;16.70;99.90;;;;;;5080310;28;20198;-73
2021/08/18 07:05:11;;;;;;;19.17;14.93;;;16.80;99.90;;;;;;5080952;28;20175;-72
2021/08/18 07:07:41;;;;;;;21.13;16.70;;;16.80;99.90;;;;;;5081642;28;20187;-74
2021/08/18 07:10:10;;;;;;;26.27;18.20;;;16.90;99.90;;;;;;5082788;28;20184;-73
2021/08/18 07:12:39;;;;;;;23.97;16.83;;;16.90;99.90;;;;;;5092062;28;20293;-73
2021/08/18 07:15:08;;;;;;;22.73;17.80;;;16.90;99.90;;;;;;5087198;28;20340;-73
2021/08/18 07:17:36;;;;;;;26.47;18.67;;;16.90;99.90;;;;;;5088194;28;20232;-74
2021/08/18 07:20:05;;;;;;;33.50;19.90;;;16.90;99.90;;;;;;5087619;28;20184;-73
2021/08/18 07:22:34;;;;;;;27.60;19.57;;;17.00;99.90;;;;;;5083297;28;20179;-73
2021/08/18 07:25:04;;;;;;;28.03;20.03;;;17.00;99.90;;;;;;5076973;28;20184;-73
2021/08/18 07:27:32;;;;;;;27.30;19.50;;;17.00;99.90;;;;;;5081832;28;20176;-72
2021/08/18 07:30:01;;;;;;;28.17;19.80;;;17.10;99.90;;;;;;5081884;28;20190;-73
2021/08/18 07:32:29;;;;;;;23.13;19.00;;;17.10;99.90;;;;;;5080697;28;20236;-73
2021/08/18 07:34:57;;;;;;;31.40;19.13;;;17.10;99.90;;;;;;5082286;28;20196;-73
2021/08/18 07:37:27;;;;;;;25.97;18.00;;;17.20;99.90;;;;;;5080481;28;20205;-72
2021/08/18 07:39:55;;;;;;;22.83;17.53;;;17.30;99.90;;;;;;5081096;28;20232;-72
2021/08/18 07:42:25;;;;;;;23.73;17.03;;;17.30;99.90;;;;;;5081140;28;20442;-73
2021/08/18 07:44:54;;;;;;;22.70;16.33;;;17.40;99.90;;;;;;5080124;28;20202;-73
2021/08/18 07:47:23;;;;;;;20.57;16.57;;;17.40;99.90;;;;;;5081494;28;20173;-73
2021/08/18 07:49:51;;;;;;;19.70;14.63;;;17.40;99.90;;;;;;5081139;28;20226;-73
2021/08/18 07:52:20;;;;;;;19.53;14.77;;;17.50;99.90;;;;;;5081694;28;20172;-72
2021/08/18 07:54:48;;;;;;;20.53;14.50;;;17.50;99.90;;;;;;5081441;28;20326;-72
2021/08/18 07:57:16;;;;;;;18.43;13.70;;;17.60;99.90;;;;;;5082928;28;20210;-74
2021/08/18 07:59:46;;;;;;;20.37;14.50;;;17.70;99.90;;;;;;5082001;28;20190;-73
2021/08/18 08:02:19;;;;;;;18.63;14.37;;;17.70;99.90;;;;;;5081363;28;20177;-72
2021/08/18 08:04:47;;;;;;;23.23;14.07;;;17.70;99.90;;;;;;5089066;28;20179;-73
2021/08/18 08:07:16;;;;;;;19.53;13.70;;;17.60;99.90;;;;;;5095867;28;20220;-73
2021/08/18 08:09:44;;;;;;;21.20;13.30;;;17.70;99.90;;;;;;5082111;28;20172;-73
2021/08/18 08:12:12;;;;;;;19.70;13.00;;;17.70;99.90;;;;;;5076026;28;20217;-73
2021/08/18 08:14:41;;;;;;;18.53;13.37;;;17.70;99.90;;;;;;5087614;28;20186;-73
2021/08/18 08:17:10;;;;;;;17.43;12.67;;;17.70;99.90;;;;;;5084846;28;20188;-72
2021/08/18 08:19:38;;;;;;;17.27;12.97;;;17.80;99.90;;;;;;5078969;28;20453;-73
2021/08/18 08:22:07;;;;;;;18.83;12.40;;;17.80;99.90;;;;;;5083572;28;20388;-73
2021/08/18 08:24:35;;;;;;;19.27;13.23;;;17.90;99.90;;;;;;5080502;28;20192;-73
2021/08/18 08:27:03;;;;;;;17.53;13.97;;;17.80;99.90;;;;;;5081595;28;20317;-74
2021/08/18 08:29:32;;;;;;;19.87;15.07;;;17.90;99.90;;;;;;5081873;28;20177;-72
2021/08/18 08:32:00;;;;;;;18.63;14.63;;;18.00;99.90;;;;;;5078609;28;20224;-73
2021/08/18 08:34:30;;;;;;;18.90;14.30;;;18.10;99.90;;;;;;5078397;28;20192;-73
2021/08/18 08:36:59;;;;;;;20.30;15.13;;;18.20;99.90;;;;;;5087468;28;20196;-71
2021/08/18 08:39:27;;;;;;;19.53;14.33;;;18.20;99.90;;;;;;5090861;28;20179;-73
2021/08/18 08:41:55;;;;;;;16.47;12.57;;;18.20;99.90;;;;;;5074473;28;20398;-72
2021/08/18 08:44:25;;;;;;;20.07;12.43;;;18.30;99.90;;;;;;5078368;28;20210;-72
2021/08/18 08:46:54;;;;;;;15.23;11.93;;;18.30;99.90;;;;;;5082052;28;20176;-72
2021/08/18 08:49:23;;;;;;;19.27;12.47;;;18.40;99.90;;;;;;5078740;28;20202;-72
2021/08/18 08:51:54;;;;;;;15.30;11.30;;;18.60;99.90;;;;;;5078417;28;20456;-74
2021/08/18 08:54:23;;;;;;;15.13;11.20;;;18.60;99.90;;;;;;5079738;28;20179;-72
2021/08/18 08:56:52;;;;;;;11.97;10.13;;;18.70;99.90;;;;;;5077833;28;20428;-73
2021/08/18 08:59:20;;;;;;;13.30;10.20;;;18.80;99.90;;;;;;5078557;28;20199;-72
2021/08/18 09:02:02;;;;;;;10.50;9.50;;;18.90;99.90;;;;;;5080965;28;20176;-73
2021/08/18 09:04:32;;;;;;;11.37;10.10;;;18.80;99.90;;;;;;5081455;28;20183;-73
2021/08/18 09:07:07;;;;;;;13.93;9.77;;;18.80;99.90;;;;;;5082464;28;20218;-74
2021/08/18 09:09:36;;;;;;;12.63;9.27;;;18.80;99.90;;;;;;5080672;28;20188;-73
2021/08/18 09:12:07;;;;;;;12.60;8.97;;;18.90;99.90;;;;;;5081465;28;20171;-72
2021/08/18 09:14:36;;;;;;;11.90;8.40;;;18.90;99.90;;;;;;5078196;28;20233;-73
2021/08/18 09:17:30;;;;;;;12.23;8.83;;;19.00;99.90;;;;;;5096352;28;20192;-73
2021/08/18 09:20:04;;;;;;;9.80;8.60;;;19.00;99.90;;;;;;5072186;28;20225;-73
2021/08/18 09:22:39;;;;;;;13.53;10.00;;;19.00;99.90;;;;;;5080982;28;20191;-73
2021/08/18 09:25:19;;;;;;;14.67;9.70;;;18.90;99.90;;;;;;5078983;28;20278;-73
2021/08/18 09:27:52;;;;;;;17.03;10.03;;;19.00;99.90;;;;;;5078569;28;20249;-73
2021/08/18 09:30:24;;;;;;;18.30;12.63;;;19.00;99.90;;;;;;5079988;28;20179;-72
2021/08/18 09:32:53;;;;;;;13.87;12.47;;;19.00;99.90;;;;;;5078787;28;20195;-72
2021/08/18 09:35:24;;;;;;;15.07;11.70;;;19.00;99.90;;;;;;5081026;28;20199;-68
2021/08/18 09:38:03;;;;;;;17.67;12.37;;;19.10;99.90;;;;;;5078580;28;20242;-73
2021/08/18 09:40:34;;;;;;;16.37;13.10;;;19.00;99.90;;;;;;5081134;28;20172;-72
2021/08/18 09:43:12;;;;;;;18.47;14.07;;;19.10;99.90;;;;;;5079125;28;20186;-73
2021/08/18 09:45:42;;;;;;;16.33;14.53;;;19.10;99.90;;;;;;5080320;28;20187;-71
2021/08/18 09:48:13;;;;;;;17.50;14.53;;;19.00;99.90;;;;;;5078990;28;20245;-71
2021/08/18 09:50:44;;;;;;;17.30;14.33;;;19.10;99.90;;;;;;5082864;28;20180;-72
2021/08/18 09:53:17;;;;;;;14.37;11.83;;;19.10;99.90;;;;;;5089582;28;20187;-73
2021/08/18 09:55:54;;;;;;;15.30;12.43;;;19.20;99.90;;;;;;5072747;28;20184;-73
2021/08/18 09:58:25;;;;;;;14.70;12.87;;;19.30;99.90;;;;;;5085137;28;20257;-72
2021/08/18 10:00:55;;;;;;;16.03;13.43;;;19.30;99.90;;;;;;5082910;28;20441;-73
2021/08/18 10:03:25;;;;;;;15.90;13.17;;;19.30;99.90;;;;;;5080041;28;20191;-72
2021/08/18 10:05:55;;;;;;;17.77;13.40;;;19.20;99.90;;;;;;5081064;28;20234;-72
2021/08/18 10:08:25;;;;;;;16.10;13.00;;;19.20;99.90;;;;;;5077231;28;20511;-73
2021/08/18 10:10:54;;;;;;;13.37;12.07;;;19.30;99.90;;;;;;5080204;28;20182;-73
2021/08/18 10:13:23;;;;;;;15.00;12.03;;;19.30;99.90;;;;;;5098789;28;20187;-72
2021/08/18 10:15:54;;;;;;;15.77;11.50;;;19.30;99.90;;;;;;5080531;28;20319;-72
2021/08/18 10:18:33;;;;;;;14.83;12.00;;;19.40;99.90;;;;;;5082211;28;20195;-72
2021/08/18 10:21:03;;;;;;;12.60;11.30;;;19.50;99.90;;;;;;5082209;28;20175;-72
2021/08/18 10:23:45;;;;;;;12.53;11.23;;;19.50;99.90;;;;;;5083920;28;20191;-73
2021/08/18 10:26:53;;;;;;;12.30;11.13;;;19.50;99.90;;;;;;5083673;28;20180;-72
2021/08/18 10:29:31;;;;;;;14.77;11.37;;;19.30;99.90;;;;;;5082359;28;20183;-72
2021/08/18 10:32:05;;;;;;;12.93;10.87;;;19.20;99.90;;;;;;5084214;28;20215;-73
2021/08/18 10:34:35;;;;;;;11.33;10.30;;;19.30;99.90;;;;;;5083292;28;20180;-72
2021/08/18 10:37:06;;;;;;;10.30;9.30;;;19.40;99.90;;;;;;5083087;28;20322;-73
2021/08/18 10:39:40;;;;;;;11.03;9.53;;;19.40;99.90;;;;;;5080601;28;20515;-72
2021/08/18 10:42:11;;;;;;;9.53;8.63;;;19.50;99.90;;;;;;5081891;28;20190;-71
2021/08/18 10:44:41;;;;;;;10.67;9.57;;;19.50;99.90;;;;;;5080175;28;20192;-72
2021/08/18 10:47:21;;;;;;;11.00;9.47;;;19.60;99.90;;;;;;5083459;28;20732;-72
2021/08/18 10:49:51;;;;;;;10.60;9.60;;;19.70;99.90;;;;;;5083228;28;20182;-73
2021/08/18 10:52:48;;;;;;;10.00;9.13;;;19.70;99.90;;;;;;5084495;28;20180;-73
2021/08/18 10:55:28;;;;;;;10.53;9.53;;;19.70;99.90;;;;;;5086012;28;20426;-73
2021/08/18 10:57:58;;;;;;;11.90;9.60;;;19.60;99.90;;;;;;5080527;28;20226;-73
2021/08/18 11:00:38;;;;;;;10.20;9.20;;;19.60;99.90;;;;;;5082994;28;20234;-73
2021/08/18 11:03:08;;;;;;;10.27;9.27;;;19.60;99.90;;;;;;5087553;28;20270;-73
2021/08/18 11:05:51;;;;;;;9.70;8.70;;;19.70;99.90;;;;;;5082579;28;20454;-73
2021/08/18 11:08:21;;;;;;;9.93;8.93;;;19.60;99.90;;;;;;5079250;28;20335;-72
2021/08/18 11:11:20;;;;;;;10.33;9.33;;;19.50;99.90;;;;;;5080817;28;20584;-72
2021/08/18 11:13:51;;;;;;;9.50;8.60;;;19.50;99.90;;;;;;5083205;28;20381;-73
2021/08/18 11:16:23;;;;;;;11.63;9.70;;;19.50;99.90;;;;;;5080717;28;20187;-73
2021/08/18 11:18:54;;;;;;;9.13;8.30;;;19.70;99.90;;;;;;5084035;28;20238;-70
2021/08/18 11:21:26;;;;;;;12.50;8.20;;;19.70;99.90;;;;;;5081543;28;20187;-72
2021/08/18 11:23:59;;;;;;;8.90;7.93;;;19.70;99.90;;;;;;5080843;28;20176;-73
2021/08/18 11:26:31;;;;;;;10.20;7.90;;;19.90;99.90;;;;;;5080547;28;20184;-68
2021/08/18 11:29:04;;;;;;;8.97;8.07;;;19.90;99.90;;;;;;5083185;28;20423;-72
2021/08/18 11:31:45;;;;;;;10.50;8.37;;;20.00;99.90;;;;;;5080060;28;20223;-71
2021/08/18 11:34:22;;;;;;;9.90;9.00;;;20.10;99.90;;;;;;5080195;28;20176;-72
2021/08/18 11:36:52;;;;;;;9.43;8.53;;;20.10;99.90;;;;;;5081850;28;20183;-70
2021/08/18 11:39:21;;;;;;;8.90;8.00;;;20.10;99.90;;;;;;5082288;28;20466;-73
2021/08/18 11:41:51;;;;;;;7.50;6.90;;;20.00;99.90;;;;;;5081740;28;20192;-73
2021/08/18 11:44:28;;;;;;;7.97;7.27;;;20.00;99.90;;;;;;5081882;28;20339;-73
2021/08/18 11:47:08;;;;;;;8.67;7.87;;;20.10;99.90;;;;;;5086933;28;20180;-72
2021/08/18 11:49:37;;;;;;;8.03;7.33;;;20.30;99.90;;;;;;5079072;28;20184;-72
2021/08/18 11:52:07;;;;;;;9.33;8.40;;;20.40;99.90;;;;;;5096390;28;20188;-73
2021/08/18 11:54:36;;;;;;;9.10;8.10;;;20.60;99.90;;;;;;5082831;28;20188;-73
2021/08/18 11:57:08;;;;;;;8.43;7.63;;;20.70;99.90;;;;;;5082783;28;20184;-73
2021/08/18 11:59:37;;;;;;;8.90;8.20;;;20.70;99.90;;;;;;5082441;28;20204;-73
2021/08/18 12:02:10;;;;;;;7.83;7.13;;;20.50;99.90;;;;;;5081475;28;20183;-73
2021/08/18 12:04:41;;;;;;;9.00;7.73;;;20.50;99.90;;;;;;5082307;28;20315;-72
2021/08/18 12:07:12;;;;;;;8.50;7.47;;;20.60;99.90;;;;;;5083890;28;20180;-73
2021/08/18 12:09:42;;;;;;;8.43;7.63;;;20.60;99.90;;;;;;5069419;28;20329;-72
2021/08/18 12:12:15;;;;;;;9.63;8.73;;;20.70;99.90;;;;;;5080786;28;20177;-73
2021/08/18 12:14:46;;;;;;;8.73;7.70;;;20.30;99.90;;;;;;5080510;28;20192;-73
2021/08/18 12:17:14;;;;;;;7.73;7.03;;;20.00;99.90;;;;;;5081163;28;20175;-72
2021/08/18 12:19:44;;;;;;;7.63;6.73;;;19.90;99.90;;;;;;5080593;28;20238;-73
2021/08/18 12:22:17;;;;;;;8.53;7.73;;;19.70;99.90;;;;;;5081047;28;20233;-72
2021/08/18 12:24:47;;;;;;;8.73;7.93;;;19.50;99.90;;;;;;5081347;28;20435;-72
2021/08/18 12:27:22;;;;;;;11.23;8.37;;;19.40;99.90;;;;;;5080582;28;20185;-72
2021/08/18 12:30:05;;;;;;;8.00;7.20;;;19.10;99.90;;;;;;5082291;28;20176;-71
2021/08/18 12:32:34;;;;;;;8.00;7.20;;;18.80;99.90;;;;;;5072748;28;21465;-72
2021/08/18 12:35:06;;;;;;;7.70;7.00;;;18.70;99.90;;;;;;5079704;28;20246;-73
2021/08/18 12:37:38;;;;;;;7.47;6.67;;;18.70;99.90;;;;;;5076312;28;20283;-73
2021/08/18 12:40:11;;;;;;;8.60;7.17;;;18.80;99.90;;;;;;5080203;28;20208;-73
2021/08/18 12:42:42;;;;;;;8.43;7.47;;;19.00;99.90;;;;;;5079881;28;20290;-73
2021/08/18 12:45:13;;;;;;;8.00;7.30;;;19.20;99.90;;;;;;5083113;28;20199;-72
2021/08/18 12:47:44;;;;;;;7.33;6.80;;;19.50;99.90;;;;;;5078319;28;20188;-72